createdAt,value
2023-05-19T00:00:34.658Z,7.7
2023-05-19T00:03:34.399Z,9
2023-05-19T00:06:34.376Z,11.2
2023-05-19T00:09:34.392Z,9.3
2023-05-19T00:12:34.395Z,10.5
2023-05-19T00:15:34.437Z,10.3
2023-05-19T00:18:34.388Z,8.8
2023-05-19T00:21:34.407Z,10
2023-05-19T00:24:34.417Z,9.2
2023-05-19T00:27:34.411Z,9.1
2023-05-19T00:30:34.494Z,9.1
2023-05-19T00:33:34.427Z,9.1
2023-05-19T00:36:34.426Z,8.4
2023-05-19T00:39:34.438Z,7.6
2023-05-19T00:42:34.449Z,11.2
2023-05-19T00:45:34.455Z,10.5
2023-05-19T00:48:34.449Z,10.1
2023-05-19T00:51:34.449Z,9.9
2023-05-19T00:54:34.469Z,9.2
2023-05-19T00:57:34.464Z,8.7
2023-05-19T01:00:34.703Z,8.3
2023-05-19T01:03:34.581Z,10.9
2023-05-19T01:06:34.480Z,10.9
2023-05-19T01:09:34.509Z,10.7
2023-05-19T01:12:34.485Z,9.3
2023-05-19T01:15:34.503Z,12.2
2023-05-19T01:18:34.494Z,12.4
2023-05-19T01:21:34.496Z,9.9
2023-05-19T01:24:34.541Z,9.5
2023-05-19T01:27:34.521Z,9.9
2023-05-19T01:30:34.695Z,10.9
2023-05-19T01:33:34.535Z,9.6
2023-05-19T01:36:34.540Z,9.7
2023-05-19T01:39:34.547Z,9.9
2023-05-19T01:42:34.540Z,9.4
2023-05-19T01:45:34.573Z,10.3
2023-05-19T01:48:34.552Z,8.8
2023-05-19T01:51:34.561Z,10.9
2023-05-19T01:54:34.582Z,11
2023-05-19T01:57:34.581Z,11
2023-05-19T02:00:34.741Z,8.9
2023-05-19T02:03:34.588Z,10
2023-05-19T02:06:34.572Z,9.8
2023-05-19T02:09:34.588Z,12.9
2023-05-19T02:12:34.604Z,9.6
2023-05-19T02:15:34.603Z,10.4
2023-05-19T02:18:34.610Z,9.9
2023-05-19T02:21:34.589Z,10.4
2023-05-19T02:24:34.654Z,8
2023-05-19T02:27:34.614Z,9.5
2023-05-19T02:30:34.712Z,9.2
2023-05-19T02:33:34.619Z,9
2023-05-19T02:36:34.620Z,9.7
2023-05-19T02:39:34.650Z,10
2023-05-19T02:42:34.640Z,9.5
2023-05-19T02:45:34.628Z,7.4
2023-05-19T02:48:34.631Z,9.8
2023-05-19T02:51:34.649Z,10.1
2023-05-19T02:54:34.658Z,7.2
2023-05-19T02:57:34.656Z,10.4
2023-05-19T03:00:34.750Z,8.9
2023-05-19T03:03:34.759Z,9.4
2023-05-19T03:06:34.673Z,11.2
2023-05-19T03:09:34.674Z,10
2023-05-19T03:12:34.680Z,9.4
2023-05-19T03:15:34.690Z,9.7
2023-05-19T03:18:34.688Z,10.2
2023-05-19T03:21:34.694Z,10.4
2023-05-19T03:24:34.720Z,10.9
2023-05-19T03:27:34.704Z,11.5
2023-05-19T03:30:34.782Z,9.3
2023-05-19T03:33:34.717Z,10.1
2023-05-19T03:36:34.719Z,9
2023-05-19T03:39:34.949Z,10.5
2023-05-19T03:42:34.710Z,10.4
2023-05-19T03:45:34.750Z,9.4
2023-05-19T03:48:34.733Z,8.7
2023-05-19T03:51:34.747Z,10.3
2023-05-19T03:54:34.763Z,11
2023-05-19T03:57:34.764Z,11.8
2023-05-19T04:00:34.980Z,9.7
2023-05-19T04:03:34.774Z,9.2
2023-05-19T04:06:34.786Z,8.8
2023-05-19T04:09:34.789Z,10.5
2023-05-19T04:12:34.783Z,9.2
2023-05-19T04:15:34.837Z,10.4
2023-05-19T04:18:34.779Z,10.4
2023-05-19T04:21:34.775Z,12.8
2023-05-19T04:24:34.790Z,9.2
2023-05-19T04:27:34.787Z,10.8
2023-05-19T04:30:34.942Z,8.9
2023-05-19T04:33:34.795Z,10.2
2023-05-19T04:36:34.816Z,8.6
2023-05-19T04:39:34.810Z,11.9
2023-05-19T04:42:34.829Z,10.1
2023-05-19T04:45:34.820Z,9.9
2023-05-19T04:48:34.821Z,9.7
2023-05-19T04:51:34.823Z,10.4
2023-05-19T04:54:34.844Z,9.9
2023-05-19T04:57:34.850Z,9.1
2023-05-19T05:00:34.896Z,9.6
2023-05-19T05:03:35.040Z,10.2
2023-05-19T05:06:34.858Z,10.7
2023-05-19T05:09:34.866Z,11.3
2023-05-19T05:12:34.859Z,11.8
2023-05-19T05:15:34.866Z,9.9
2023-05-19T05:18:34.885Z,10.1
2023-05-19T05:21:34.890Z,10.2
2023-05-19T05:24:34.896Z,9.5
2023-05-19T05:27:34.883Z,9.7
2023-05-19T05:30:34.891Z,9.9
2023-05-19T05:33:34.905Z,8.1
2023-05-19T05:36:34.892Z,7.8
2023-05-19T05:39:34.911Z,7.7
2023-05-19T05:42:34.902Z,8.1
2023-05-19T05:45:34.986Z,6.6
2023-05-19T05:48:34.939Z,8.8
2023-05-19T05:51:34.919Z,7
2023-05-19T05:54:34.930Z,9.1
2023-05-19T05:57:34.921Z,8.1
2023-05-19T06:00:35.125Z,7.3
2023-05-19T06:03:34.973Z,6.8
2023-05-19T06:06:34.945Z,7.1
2023-05-19T06:09:34.963Z,6.7
2023-05-19T06:12:34.948Z,6.3
2023-05-19T06:15:35.006Z,4.9
2023-05-19T06:18:34.959Z,6.6
2023-05-19T06:21:34.974Z,7.3
2023-05-19T06:24:35.710Z,5.7
2023-05-19T06:27:35.158Z,6.7
2023-05-19T06:30:35.072Z,6.5
2023-05-19T06:33:34.982Z,6.6
2023-05-19T06:36:34.987Z,7
2023-05-19T06:39:34.988Z,8.1
2023-05-19T06:42:34.987Z,7
2023-05-19T06:45:34.995Z,8.1
2023-05-19T06:48:35.000Z,6.1
2023-05-19T06:51:35.006Z,5.6
2023-05-19T06:54:35.015Z,6.6
2023-05-19T06:57:35.008Z,6.8
2023-05-19T07:00:35.177Z,6.8
2023-05-19T07:03:35.209Z,6.6
2023-05-19T07:06:35.036Z,6.2
2023-05-19T07:09:35.034Z,8.6
2023-05-19T07:12:35.021Z,7.9
2023-05-19T07:15:35.045Z,7.2
2023-05-19T07:18:35.040Z,7
2023-05-19T07:21:35.047Z,7.2
2023-05-19T07:24:35.072Z,5.7
2023-05-19T07:27:35.057Z,6.5
2023-05-19T07:30:35.148Z,7
2023-05-19T07:33:35.061Z,6.5
2023-05-19T07:36:35.080Z,6.2
2023-05-19T07:39:35.087Z,7.3
2023-05-19T07:42:35.077Z,6.2
2023-05-19T07:45:35.133Z,5.9
2023-05-19T07:48:35.090Z,5.4
2023-05-19T07:51:35.094Z,6.1
2023-05-19T07:54:35.102Z,6.8
2023-05-19T07:57:35.099Z,7.1
2023-05-19T08:00:35.311Z,6.9
2023-05-19T08:03:35.256Z,6.1
2023-05-19T08:06:35.120Z,5.8
2023-05-19T08:09:35.125Z,6.6
2023-05-19T08:12:35.123Z,4.4
2023-05-19T08:15:35.147Z,4.8
2023-05-19T08:18:35.131Z,5.2
2023-05-19T08:21:35.143Z,7.2
2023-05-19T08:24:35.153Z,4.7
2023-05-19T08:27:35.158Z,4.3
2023-05-19T08:30:35.238Z,5.3
2023-05-19T08:33:35.166Z,4.7
2023-05-19T08:36:35.171Z,4.3
2023-05-19T08:39:35.196Z,5.7
2023-05-19T08:42:35.183Z,6.4
2023-05-19T08:45:35.302Z,5.8
2023-05-19T08:48:35.189Z,6.1
2023-05-19T08:51:35.211Z,6
2023-05-19T08:54:35.211Z,5.2
2023-05-19T08:57:35.193Z,8.1
2023-05-19T09:00:35.496Z,6
2023-05-19T09:03:35.230Z,4.9
2023-05-19T09:06:35.224Z,4.6
2023-05-19T09:09:35.230Z,4.1
2023-05-19T09:12:35.214Z,4.2
2023-05-19T09:15:35.368Z,4.7
2023-05-19T09:18:35.238Z,4.8
2023-05-19T09:21:35.231Z,4
2023-05-19T09:24:35.242Z,4.4
2023-05-19T09:27:35.240Z,6.1
2023-05-19T09:30:35.244Z,4.6
2023-05-19T09:33:35.275Z,6.3
2023-05-19T09:36:35.248Z,4
2023-05-19T09:39:35.280Z,4.1
2023-05-19T09:42:35.261Z,6.5
2023-05-19T09:45:35.296Z,4.8
2023-05-19T09:48:35.273Z,4.1
2023-05-19T09:51:35.256Z,3.5
2023-05-19T09:54:35.268Z,3.7
2023-05-19T09:57:35.266Z,4.1
2023-05-19T10:00:35.435Z,4.8
2023-05-19T10:03:35.395Z,5
2023-05-19T10:06:35.283Z,3.7
2023-05-19T10:09:35.293Z,7.4
2023-05-19T10:12:35.301Z,3.6
2023-05-19T10:15:38.486Z,5.7
2023-05-19T10:18:36.063Z,14.6
2023-05-19T10:21:35.302Z,4.3
2023-05-19T10:24:35.503Z,3.7
2023-05-19T10:27:35.316Z,3.2
2023-05-19T10:30:35.322Z,6.5
2023-05-19T10:33:35.322Z,3.7
2023-05-19T10:36:35.335Z,4.2
2023-05-19T10:39:35.345Z,5
2023-05-19T10:42:35.339Z,3.5
2023-05-19T10:45:35.530Z,3.4
2023-05-19T10:48:35.353Z,3.4
2023-05-19T10:51:35.354Z,4.6
2023-05-19T10:54:35.361Z,6.3
2023-05-19T10:57:35.365Z,4.4
2023-05-19T11:00:35.382Z,5.1
2023-05-19T11:03:35.400Z,4.3
2023-05-19T11:06:35.369Z,3.1
2023-05-19T11:09:40.235Z,3.6
2023-05-19T11:12:35.379Z,4.6
2023-05-19T11:15:35.386Z,3.2
2023-05-19T11:18:35.395Z,3.9
2023-05-19T11:21:35.437Z,2.7
2023-05-19T11:24:35.426Z,3.8
2023-05-19T11:27:35.399Z,2.7
2023-05-19T11:30:35.407Z,2.8
2023-05-19T11:33:35.407Z,3
2023-05-19T11:36:35.419Z,2.6
2023-05-19T11:39:35.430Z,3.7
2023-05-19T11:42:35.438Z,4.9
2023-05-19T11:45:35.646Z,3.1
2023-05-19T11:48:35.476Z,3.1
2023-05-19T11:51:35.437Z,4
2023-05-19T11:54:35.454Z,2.1
2023-05-19T11:57:35.450Z,3.3
2023-05-19T12:00:35.459Z,2.5
2023-05-19T12:03:35.599Z,3.6
2023-05-19T12:06:35.500Z,5.4
2023-05-19T12:09:35.469Z,3.9
2023-05-19T12:12:35.460Z,4
2023-05-19T12:15:35.640Z,3.7
2023-05-19T12:18:35.696Z,3
2023-05-19T12:21:35.486Z,2.6
2023-05-19T12:24:35.492Z,3
2023-05-19T12:27:35.487Z,3.8
2023-05-19T12:30:35.821Z,4.5
2023-05-19T12:33:35.917Z,4.1
2023-05-19T12:36:35.504Z,6.1
2023-05-19T12:39:35.517Z,3.3
2023-05-19T12:42:35.518Z,4.7
2023-05-19T12:45:35.659Z,3.3
2023-05-19T12:48:35.525Z,3.3
2023-05-19T12:51:35.521Z,4.6
2023-05-19T12:54:35.670Z,2.5
2023-05-19T12:57:35.520Z,3.6
2023-05-19T13:00:35.708Z,4.2
2023-05-19T13:03:35.640Z,2.7
2023-05-19T13:06:35.527Z,3.1
2023-05-19T13:09:35.555Z,2.7
2023-05-19T13:12:35.549Z,3.8
2023-05-19T13:15:35.552Z,2.9
2023-05-19T13:18:35.550Z,3.8
2023-05-19T13:21:35.554Z,4.6
2023-05-19T13:24:35.559Z,3.5
2023-05-19T13:27:35.554Z,3.2
2023-05-19T13:30:35.874Z,2.7
2023-05-19T13:33:35.569Z,4.8
2023-05-19T13:36:35.566Z,3.8
2023-05-19T13:39:35.585Z,5.9
2023-05-19T13:42:35.580Z,7.4
2023-05-19T13:45:35.574Z,2.7
2023-05-19T13:48:35.586Z,4.5
2023-05-19T13:51:35.588Z,3.9
2023-05-19T13:54:35.611Z,3
2023-05-19T13:57:35.611Z,3.4
2023-05-19T14:00:36.012Z,3.6
2023-05-19T14:03:35.704Z,2.9
2023-05-19T14:06:35.646Z,4.7
2023-05-19T14:09:35.669Z,4.5
2023-05-19T14:12:47.440Z,3.2
2023-05-19T14:15:35.664Z,3.2
2023-05-19T14:18:35.669Z,2.6
2023-05-19T14:21:35.673Z,3
2023-05-19T14:24:35.683Z,3.7
2023-05-19T14:27:35.681Z,4
2023-05-19T14:30:35.904Z,2.9
2023-05-19T14:33:35.873Z,3.4
2023-05-19T14:36:35.697Z,2.5
2023-05-19T14:39:35.724Z,2.7
2023-05-19T14:42:35.720Z,2.6
2023-05-19T14:45:35.716Z,3.9
2023-05-19T14:48:35.720Z,3.1
2023-05-19T14:51:35.732Z,2.5
2023-05-19T14:54:35.739Z,4.1
2023-05-19T14:57:35.739Z,2.8
2023-05-19T15:00:35.838Z,3.6
2023-05-19T15:03:35.808Z,2.6
2023-05-19T15:06:35.746Z,3
2023-05-19T15:09:35.757Z,4.4
2023-05-19T15:12:35.765Z,5.8
2023-05-19T15:15:35.777Z,2.3
2023-05-19T15:18:35.776Z,3.8
2023-05-19T15:21:35.808Z,3.1
2023-05-19T15:24:35.788Z,3.4
2023-05-19T15:27:35.779Z,3.6
2023-05-19T15:30:36.016Z,3
2023-05-19T15:33:35.794Z,3.3
2023-05-19T15:36:35.795Z,4.2
2023-05-19T15:39:35.812Z,2.5
2023-05-19T15:42:35.820Z,3.7
2023-05-19T15:45:35.803Z,2.5
2023-05-19T15:48:35.804Z,3.1
2023-05-19T15:51:35.817Z,2.6
2023-05-19T15:54:35.830Z,3.3
2023-05-19T15:57:35.828Z,5
2023-05-19T16:00:35.929Z,3.3
2023-05-19T16:03:35.955Z,3.8
2023-05-19T16:06:35.841Z,2.5
2023-05-19T16:09:35.861Z,5.2
2023-05-19T16:12:35.853Z,3.1
2023-05-19T16:15:35.853Z,3.9
2023-05-19T16:18:35.855Z,2.8
2023-05-19T16:21:35.857Z,2.9
2023-05-19T16:24:35.878Z,3.8
2023-05-19T16:27:35.864Z,2.8
2023-05-19T16:30:36.257Z,2.2
2023-05-19T16:33:35.874Z,3.7
2023-05-19T16:36:35.871Z,2.6
2023-05-19T16:39:35.899Z,3.1
2023-05-19T16:42:35.884Z,3.4
2023-05-19T16:45:35.909Z,2.9
2023-05-19T16:48:35.897Z,4.7
2023-05-19T16:51:35.906Z,4.2
2023-05-19T16:54:35.920Z,4
2023-05-19T16:57:35.919Z,2.9
2023-05-19T17:00:36.127Z,3.9
2023-05-19T17:03:35.980Z,3.3
2023-05-19T17:06:35.944Z,3.6
2023-05-19T17:09:35.943Z,3.6
2023-05-19T17:12:35.943Z,3.6
2023-05-19T17:15:35.938Z,2.8
2023-05-19T17:18:35.953Z,3.2
2023-05-19T17:21:35.975Z,3.3
2023-05-19T17:24:35.958Z,3.7
2023-05-19T17:27:35.953Z,2.9
2023-05-19T17:30:35.971Z,6
2023-05-19T17:33:36.145Z,4.4
2023-05-19T17:36:35.968Z,3
2023-05-19T17:39:35.983Z,5.3
2023-05-19T17:42:35.979Z,3
2023-05-19T17:45:35.989Z,2.8
2023-05-19T17:48:35.989Z,3.4
2023-05-19T17:51:35.998Z,3.5
2023-05-19T17:54:36.013Z,3.1
2023-05-19T17:57:36.022Z,3
2023-05-19T18:00:36.126Z,2.5
2023-05-19T18:03:36.182Z,2.8
2023-05-19T18:06:36.015Z,4
2023-05-19T18:09:36.030Z,3
2023-05-19T18:12:36.021Z,2.2
2023-05-19T18:15:36.036Z,3.3
2023-05-19T18:18:36.027Z,3.4
2023-05-19T18:21:36.054Z,3.4
2023-05-19T18:24:36.053Z,2.7
2023-05-19T18:27:36.048Z,2.9
2023-05-19T18:30:36.058Z,3.3
2023-05-19T18:33:36.064Z,4.2
2023-05-19T18:36:36.067Z,3.3
2023-05-19T18:39:36.079Z,3.5
2023-05-19T18:42:36.073Z,3.7
2023-05-19T18:45:36.122Z,5
2023-05-19T18:48:36.075Z,4
2023-05-19T18:51:36.133Z,3.1
2023-05-19T18:54:36.098Z,3.2
2023-05-19T18:57:36.088Z,2.9
2023-05-19T19:00:36.096Z,2.5
2023-05-19T19:03:36.100Z,2.6
2023-05-19T19:06:36.104Z,2.9
2023-05-19T19:09:36.123Z,4.2
2023-05-19T19:12:36.115Z,2.3
2023-05-19T19:15:36.109Z,3.6
2023-05-19T19:18:36.147Z,4.1
2023-05-19T19:21:36.113Z,3.2
2023-05-19T19:24:36.150Z,2.8
2023-05-19T19:27:36.131Z,3.4
2023-05-19T19:30:36.324Z,3.2
2023-05-19T19:33:36.133Z,3.7
2023-05-19T19:36:36.144Z,3.7
2023-05-19T19:39:36.155Z,3.4
2023-05-19T19:42:36.146Z,3.1
2023-05-19T19:45:36.158Z,5.7
2023-05-19T19:48:36.161Z,3.2
2023-05-19T19:51:36.162Z,3.7
2023-05-19T19:54:36.174Z,3.3
2023-05-19T19:57:36.183Z,4.7
2023-05-19T20:00:36.184Z,3.7
2023-05-19T20:03:36.222Z,3.7
2023-05-19T20:06:36.195Z,3.6
2023-05-19T20:09:36.214Z,3.3
2023-05-19T20:12:36.203Z,4.1
2023-05-19T20:15:36.213Z,3.9
2023-05-19T20:18:36.208Z,4.7
2023-05-19T20:21:36.213Z,3
2023-05-19T20:24:36.225Z,3.2
2023-05-19T20:27:36.243Z,3.8
2023-05-19T20:30:36.230Z,3.9
2023-05-19T20:33:36.240Z,3.8
2023-05-19T20:36:36.240Z,5
2023-05-19T20:39:36.253Z,3.6
2023-05-19T20:42:36.242Z,3.3
2023-05-19T20:45:36.434Z,2.5
2023-05-19T20:48:36.259Z,3.4
2023-05-19T20:51:36.262Z,3.5
2023-05-19T20:54:36.278Z,3.2
2023-05-19T20:57:36.286Z,4
2023-05-19T21:00:36.493Z,3.8
2023-05-19T21:03:36.287Z,4.2
2023-05-19T21:06:36.304Z,4.2
2023-05-19T21:09:36.296Z,2.9
2023-05-19T21:12:36.288Z,3.1
2023-05-19T21:15:36.297Z,3
2023-05-19T21:18:36.304Z,3.3
2023-05-19T21:21:36.298Z,2.8
2023-05-19T21:24:36.322Z,3
2023-05-19T21:27:36.310Z,2.8
2023-05-19T21:30:36.357Z,4.7
2023-05-19T21:33:36.320Z,3.2
2023-05-19T21:36:36.333Z,5
2023-05-19T21:39:36.364Z,3.8
2023-05-19T21:42:36.332Z,3.8
2023-05-19T21:45:36.339Z,4.6
2023-05-19T21:48:36.343Z,5.3
2023-05-19T21:51:36.352Z,3.4
2023-05-19T21:54:36.365Z,4.5
2023-05-19T21:57:36.363Z,3.9
2023-05-19T22:00:36.527Z,4.3
2023-05-19T22:03:36.420Z,4.2
2023-05-19T22:06:36.374Z,4.3
2023-05-19T22:09:36.396Z,3.9
2023-05-19T22:12:36.380Z,3.1
2023-05-19T22:15:36.384Z,3.4
2023-05-19T22:18:36.384Z,3.7
2023-05-19T22:21:36.394Z,3.8
2023-05-19T22:24:36.414Z,3.5
2023-05-19T22:27:36.402Z,5.8
2023-05-19T22:30:38.420Z,4.8
2023-05-19T22:33:36.418Z,3.3
2023-05-19T22:36:36.418Z,4.7
2023-05-19T22:39:36.447Z,3.3
2023-05-19T22:42:36.438Z,3.1
2023-05-19T22:45:36.735Z,3
2023-05-19T22:48:36.441Z,3.1
2023-05-19T22:51:36.453Z,5.6
2023-05-19T22:54:36.468Z,4.1
2023-05-19T22:57:36.455Z,3.9
2023-05-19T23:00:36.472Z,4.1
2023-05-19T23:03:36.543Z,3.1
2023-05-19T23:06:36.474Z,3.4
2023-05-19T23:09:36.486Z,3
2023-05-19T23:12:36.613Z,3.4
2023-05-19T23:15:36.561Z,3
2023-05-19T23:18:36.494Z,4.9
2023-05-19T23:21:36.494Z,3.4
2023-05-19T23:24:36.513Z,3.7
2023-05-19T23:27:36.513Z,4.2
2023-05-19T23:30:36.518Z,3.8
2023-05-19T23:33:36.528Z,4
2023-05-19T23:36:36.535Z,3.8
2023-05-19T23:39:36.553Z,4.1
2023-05-19T23:42:36.548Z,3.3
2023-05-19T23:45:36.546Z,3.2
2023-05-19T23:48:36.661Z,3.5
2023-05-19T23:51:36.556Z,3.3
2023-05-19T23:54:36.578Z,4.5
2023-05-19T23:57:36.570Z,3.5
